createdAt,value
2022-08-07T00:01:43.713Z,19.15
2022-08-07T00:04:09.571Z,19.14
2022-08-07T00:06:38.714Z,19.06
2022-08-07T00:09:21.219Z,18.91
2022-08-07T00:11:55.839Z,18.79
2022-08-07T00:14:31.474Z,18.57
2022-08-07T00:17:02.486Z,18.43
2022-08-07T00:20:00.557Z,18.41
2022-08-07T00:22:34.611Z,18.40
2022-08-07T00:25:07.322Z,18.32
2022-08-07T00:27:52.457Z,18.31
2022-08-07T00:30:26.318Z,18.35
2022-08-07T00:32:54.693Z,18.38
2022-08-07T00:35:23.003Z,18.42
2022-08-07T00:37:50.038Z,18.51
2022-08-07T00:40:39.320Z,18.58
2022-08-07T00:43:09.884Z,18.66
2022-08-07T00:45:40.470Z,18.67
2022-08-07T00:48:10.890Z,18.70
2022-08-07T00:50:46.316Z,18.72
2022-08-07T00:53:21.224Z,18.70
2022-08-07T00:56:02.528Z,18.66
2022-08-07T00:58:31.417Z,18.55
2022-08-07T01:00:58.907Z,18.53
2022-08-07T01:03:55.484Z,18.53
2022-08-07T01:06:15.737Z,18.54
2022-08-07T01:08:51.437Z,18.53
2022-08-07T01:12:09.620Z,18.39
2022-08-07T01:14:08.985Z,18.35
2022-08-07T01:16:36.593Z,18.34
2022-08-07T01:19:04.753Z,18.34
2022-08-07T01:21:46.702Z,18.36
2022-08-07T01:24:13.992Z,18.30
2022-08-07T01:26:40.835Z,18.17
2022-08-07T01:29:08.697Z,18.08
2022-08-07T01:31:42.322Z,18.02
2022-08-07T01:34:14.167Z,18.00
2022-08-07T01:36:40.968Z,18.04
2022-08-07T01:39:11.002Z,18.06
2022-08-07T01:41:40.738Z,17.94
2022-08-07T01:44:21.808Z,17.74
2022-08-07T01:46:50.427Z,17.57
2022-08-07T01:49:18.058Z,17.59
2022-08-07T01:52:01.885Z,17.71
2022-08-07T01:54:37.082Z,17.76
2022-08-07T01:57:24.272Z,17.80
2022-08-07T02:00:13.196Z,17.85
2022-08-07T02:03:18.795Z,17.89
2022-08-07T02:05:55.326Z,17.97
2022-08-07T02:08:27.902Z,17.95
2022-08-07T02:10:59.279Z,17.74
2022-08-07T02:13:56.334Z,17.59
2022-08-07T02:16:28.405Z,17.65
2022-08-07T02:19:00.963Z,17.69
2022-08-07T02:21:55.990Z,17.58
2022-08-07T02:24:21.463Z,17.42
2022-08-07T02:26:50.027Z,17.27
2022-08-07T02:29:21.809Z,17.19
2022-08-07T02:31:49.761Z,17.27
2022-08-07T02:34:18.164Z,17.23
2022-08-07T02:36:45.996Z,17.03
2022-08-07T02:39:17.286Z,16.89
2022-08-07T02:42:02.632Z,16.93
2022-08-07T02:44:34.829Z,17.04
2022-08-07T02:47:05.635Z,17.00
2022-08-07T02:49:56.486Z,16.95
2022-08-07T02:52:31.194Z,17.00
2022-08-07T02:55:03.629Z,17.10
2022-08-07T02:57:34.874Z,17.09
2022-08-07T03:00:05.004Z,17.05
2022-08-07T03:02:37.512Z,17.12
2022-08-07T03:05:23.142Z,17.24
2022-08-07T03:08:07.019Z,17.22
2022-08-07T03:10:41.062Z,17.22
2022-08-07T03:13:15.121Z,17.23
2022-08-07T03:15:55.694Z,17.27
2022-08-07T03:18:24.457Z,17.28
2022-08-07T03:21:03.667Z,17.27
2022-08-07T03:23:33.653Z,17.28
2022-08-07T03:26:03.368Z,17.28
2022-08-07T03:28:37.500Z,17.27
2022-08-07T03:31:24.607Z,17.29
2022-08-07T03:33:59.340Z,17.30
2022-08-07T03:36:28.877Z,17.26
2022-08-07T03:39:05.304Z,17.25
2022-08-07T03:41:41.692Z,17.22
2022-08-07T03:44:09.351Z,17.21
2022-08-07T03:46:37.519Z,17.22
2022-08-07T03:49:24.218Z,17.22
2022-08-07T03:52:01.831Z,17.25
2022-08-07T03:54:35.289Z,17.17
2022-08-07T03:57:09.749Z,17.05
2022-08-07T04:00:01.719Z,17.02
2022-08-07T04:02:30.989Z,17.08
2022-08-07T04:04:58.439Z,17.11
2022-08-07T04:07:25.675Z,17.11
2022-08-07T04:10:03.675Z,17.09
2022-08-07T04:12:33.003Z,17.09
2022-08-07T04:15:02.344Z,17.11
2022-08-07T04:18:57.024Z,17.10
2022-08-07T04:20:19.538Z,17.10
2022-08-07T04:22:53.355Z,17.09
2022-08-07T04:25:29.300Z,17.14
2022-08-07T04:28:00.280Z,17.17
2022-08-07T04:30:43.337Z,17.19
2022-08-07T04:33:15.846Z,17.21
2022-08-07T04:35:50.512Z,17.24
2022-08-07T04:38:19.133Z,17.25
2022-08-07T04:40:52.763Z,17.26
2022-08-07T04:44:12.607Z,17.29
2022-08-07T04:46:25.957Z,17.27
2022-08-07T04:49:24.566Z,17.30
2022-08-07T04:52:14.991Z,17.32
2022-08-07T04:55:14.950Z,17.36
2022-08-07T04:58:33.757Z,17.46
2022-08-07T05:01:13.581Z,17.56
2022-08-07T05:04:07.556Z,17.59
2022-08-07T05:06:51.769Z,17.64
2022-08-07T05:09:45.646Z,17.75
2022-08-07T05:12:27.353Z,17.79
2022-08-07T05:15:21.580Z,17.89
2022-08-07T05:17:57.284Z,18.00
2022-08-07T05:20:34.107Z,18.12
2022-08-07T05:23:15.756Z,18.17
2022-08-07T05:26:13.420Z,18.14
2022-08-07T05:28:35.076Z,18.22
2022-08-07T05:31:03.691Z,18.38
2022-08-07T05:33:35.577Z,18.57
2022-08-07T05:36:06.931Z,18.66
2022-08-07T05:39:01.013Z,18.62
2022-08-07T05:41:29.017Z,18.66
2022-08-07T05:44:15.550Z,18.78
2022-08-07T05:46:56.578Z,18.84
2022-08-07T05:49:23.704Z,19.01
2022-08-07T05:51:50.254Z,19.11
2022-08-07T05:54:30.927Z,19.22
2022-08-07T05:57:04.953Z,19.17
2022-08-07T05:59:46.579Z,19.18
2022-08-07T06:02:29.109Z,19.44
2022-08-07T06:05:03.624Z,19.60
2022-08-07T06:08:29.445Z,19.76
2022-08-07T06:10:18.575Z,19.95
2022-08-07T06:12:46.094Z,20.03
2022-08-07T06:15:16.078Z,20.20
2022-08-07T06:17:53.458Z,20.20
2022-08-07T06:20:31.671Z,20.16
2022-08-07T06:23:46.174Z,20.19
2022-08-07T06:25:58.565Z,20.27
2022-08-07T06:28:27.353Z,20.42
2022-08-07T06:30:56.100Z,20.47
2022-08-07T06:33:24.297Z,20.44
2022-08-07T06:36:12.478Z,20.55
2022-08-07T06:38:38.166Z,20.71
2022-08-07T06:41:12.848Z,20.76
2022-08-07T06:43:46.174Z,20.78
2022-08-07T06:46:15.416Z,20.88
2022-08-07T06:48:58.334Z,21.09
2022-08-07T06:51:33.336Z,21.26
2022-08-07T06:55:29.550Z,21.40
2022-08-07T06:56:51.239Z,21.51
2022-08-07T07:00:14.421Z,21.51
2022-08-07T07:02:13.197Z,21.48
2022-08-07T07:04:59.674Z,21.60
2022-08-07T07:07:59.840Z,21.61
2022-08-07T07:10:14.988Z,21.77
2022-08-07T07:12:53.840Z,21.88
2022-08-07T07:15:35.767Z,22.02
2022-08-07T07:18:05.529Z,22.18
2022-08-07T07:20:36.968Z,22.28
2022-08-07T07:24:08.377Z,22.37
2022-08-07T07:26:33.530Z,22.44
2022-08-07T07:29:55.964Z,22.61
2022-08-07T07:32:03.143Z,22.78
2022-08-07T07:34:32.108Z,22.79
2022-08-07T07:37:14.461Z,22.82
2022-08-07T07:39:54.766Z,22.92
2022-08-07T07:42:25.747Z,22.90
2022-08-07T07:45:02.315Z,23.01
2022-08-07T07:47:30.181Z,23.19
2022-08-07T07:50:35.521Z,23.31
2022-08-07T07:53:00.928Z,23.45
2022-08-07T07:55:37.531Z,23.63
2022-08-07T07:58:14.205Z,23.65
2022-08-07T08:00:53.563Z,23.61
2022-08-07T08:04:06.107Z,23.65
2022-08-07T08:06:11.586Z,23.87
2022-08-07T08:08:42.053Z,24.05
2022-08-07T08:11:16.383Z,24.09
2022-08-07T08:13:53.144Z,24.15
2022-08-07T08:16:26.340Z,24.28
2022-08-07T08:18:58.209Z,24.43
2022-08-07T08:22:00.588Z,24.62
2022-08-07T08:25:04.456Z,24.56
2022-08-07T08:27:55.877Z,24.56
2022-08-07T08:30:24.399Z,24.47
2022-08-07T08:32:54.233Z,24.54
2022-08-07T08:35:28.648Z,24.64
2022-08-07T08:38:03.796Z,24.81
2022-08-07T08:40:40.928Z,24.87
2022-08-07T08:43:58.659Z,24.97
2022-08-07T08:46:32.735Z,24.93
2022-08-07T08:49:10.213Z,24.86
2022-08-07T08:52:14.128Z,24.95
2022-08-07T08:55:10.194Z,25.05
2022-08-07T08:57:52.901Z,25.20
2022-08-07T09:00:21.472Z,25.26
2022-08-07T09:03:13.523Z,25.35
2022-08-07T09:05:43.539Z,25.38
2022-08-07T09:08:29.082Z,25.55
2022-08-07T09:11:24.643Z,25.62
2022-08-07T09:14:15.402Z,25.77
2022-08-07T09:16:54.533Z,25.86
2022-08-07T09:19:53.118Z,25.68
2022-08-07T09:24:32.666Z,25.60
2022-08-07T09:26:10.750Z,25.76
2022-08-07T09:30:04.032Z,25.69
2022-08-07T09:31:49.220Z,25.85
2022-08-07T09:34:38.067Z,25.83
2022-08-07T09:37:14.851Z,25.88
2022-08-07T09:40:04.103Z,25.95
2022-08-07T09:44:03.185Z,26.02
2022-08-07T09:47:27.625Z,26.20
2022-08-07T09:50:01.910Z,26.29
2022-08-07T09:52:34.311Z,26.35
2022-08-07T09:55:01.523Z,26.38
2022-08-07T09:57:53.867Z,26.35
2022-08-07T10:00:29.939Z,26.39
2022-08-07T10:03:08.370Z,26.42
2022-08-07T10:06:24.441Z,26.45
2022-08-07T10:09:15.769Z,26.65
2022-08-07T10:12:11.819Z,26.63
2022-08-07T10:15:05.324Z,26.76
2022-08-07T10:18:00.274Z,26.71
2022-08-07T10:20:35.355Z,26.78
2022-08-07T10:24:04.933Z,26.84
2022-08-07T10:27:06.675Z,26.97
2022-08-07T10:30:12.430Z,27.10
2022-08-07T10:33:08.410Z,27.14
2022-08-07T10:36:11.390Z,27.10
2022-08-07T10:38:52.258Z,27.09
2022-08-07T10:41:52.248Z,27.21
2022-08-07T10:44:45.655Z,27.23
2022-08-07T10:47:27.043Z,27.34
2022-08-07T10:50:19.082Z,27.31
2022-08-07T10:53:11.370Z,27.35
2022-08-07T10:55:57.273Z,27.44
2022-08-07T10:59:01.287Z,27.57
2022-08-07T11:01:35.734Z,27.63
2022-08-07T11:04:31.959Z,27.64
2022-08-07T11:07:14.971Z,27.62
2022-08-07T11:10:09.593Z,27.56
2022-08-07T11:12:49.072Z,27.60
2022-08-07T11:15:26.322Z,27.79
2022-08-07T11:18:29.434Z,27.99
2022-08-07T11:21:06.472Z,28.08
2022-08-07T11:23:45.426Z,28.01
2022-08-07T11:26:48.086Z,27.94
2022-08-07T11:29:43.047Z,27.91
2022-08-07T11:32:34.398Z,27.94
2022-08-07T11:35:11.977Z,28.02
2022-08-07T11:37:58.057Z,28.06
2022-08-07T11:40:58.149Z,28.26
2022-08-07T11:44:10.858Z,28.25
2022-08-07T11:46:49.105Z,28.23
2022-08-07T11:50:18.611Z,28.23
2022-08-07T11:52:51.924Z,28.19
2022-08-07T11:56:13.953Z,28.23
2022-08-07T11:59:03.571Z,28.08
2022-08-07T12:01:59.851Z,28.25
2022-08-07T12:04:40.226Z,28.36
2022-08-07T12:07:27.878Z,28.58
2022-08-07T12:10:17.194Z,28.62
2022-08-07T12:12:55.175Z,28.49
2022-08-07T12:15:46.264Z,28.58
2022-08-07T12:18:29.909Z,28.65
2022-08-07T12:21:03.540Z,28.69
2022-08-07T12:24:06.983Z,28.63
2022-08-07T12:26:49.374Z,28.78
2022-08-07T12:29:38.420Z,28.95
2022-08-07T12:32:19.796Z,28.91
2022-08-07T12:34:55.864Z,28.84
2022-08-07T12:37:28.448Z,28.84
2022-08-07T12:40:43.693Z,28.88
2022-08-07T12:43:09.337Z,28.97
2022-08-07T12:45:57.799Z,29.00
2022-08-07T12:48:41.444Z,28.99
2022-08-07T12:51:24.336Z,28.93
2022-08-07T12:54:36.459Z,29.07
2022-08-07T12:57:09.547Z,29.17
2022-08-07T12:59:54.366Z,29.21
2022-08-07T13:02:33.069Z,29.23
2022-08-07T13:06:03.332Z,29.41
2022-08-07T13:08:38.652Z,29.55
2022-08-07T13:11:31.329Z,29.66
2022-08-07T13:14:29.224Z,29.69
2022-08-07T13:17:39.767Z,29.78
2022-08-07T13:20:33.937Z,29.46
2022-08-07T13:24:01.057Z,29.46
2022-08-07T13:26:18.263Z,29.55
2022-08-07T13:28:58.327Z,29.49
2022-08-07T13:31:57.657Z,29.63
2022-08-07T13:34:35.835Z,29.86
2022-08-07T13:37:40.726Z,29.98
2022-08-07T13:40:33.990Z,30.04
2022-08-07T13:43:13.381Z,29.83
2022-08-07T13:46:12.346Z,29.65
2022-08-07T13:48:38.394Z,29.58
2022-08-07T13:51:27.248Z,29.60
2022-08-07T13:54:01.517Z,29.73
2022-08-07T13:56:35.517Z,29.86
2022-08-07T13:59:17.860Z,29.98
2022-08-07T14:02:04.324Z,30.05
2022-08-07T14:04:35.825Z,30.23
2022-08-07T14:07:09.463Z,30.13
2022-08-07T14:10:00.890Z,30.13
2022-08-07T14:12:54.898Z,30.31
2022-08-07T14:15:35.090Z,30.31
2022-08-07T14:18:27.734Z,30.33
2022-08-07T14:22:01.366Z,30.37
2022-08-07T14:24:05.239Z,30.49
2022-08-07T14:26:50.287Z,30.57
2022-08-07T14:30:08.082Z,30.55
2022-08-07T14:32:12.334Z,30.13
2022-08-07T14:34:46.403Z,30.15
2022-08-07T14:37:17.451Z,30.40
2022-08-07T14:40:16.211Z,30.53
2022-08-07T14:42:35.704Z,30.54
2022-08-07T14:45:25.471Z,30.44
2022-08-07T14:48:19.782Z,30.53
2022-08-07T14:51:00.166Z,30.67
2022-08-07T14:54:09.847Z,30.78
2022-08-07T14:59:13.727Z,30.44
2022-08-07T15:02:33.062Z,30.49
2022-08-07T15:05:02.180Z,30.61
2022-08-07T15:07:47.359Z,30.65
2022-08-07T15:10:19.652Z,30.57
2022-08-07T15:12:54.913Z,30.46
2022-08-07T15:15:40.600Z,30.39
2022-08-07T15:18:33.618Z,30.55
2022-08-07T15:26:49.522Z,30.52
2022-08-07T15:30:09.323Z,30.56
2022-08-07T15:32:11.750Z,30.52
2022-08-07T15:38:17.620Z,30.66
2022-08-07T15:40:34.316Z,30.45
2022-08-07T15:43:53.687Z,30.47
2022-08-07T15:46:32.251Z,30.42
2022-08-07T15:49:12.781Z,30.40
2022-08-07T15:54:39.255Z,30.44
2022-08-07T15:57:10.808Z,30.42
2022-08-07T15:59:56.644Z,30.40
2022-08-07T16:02:29.285Z,30.45
2022-08-07T16:05:15.669Z,30.48
2022-08-07T16:08:30.479Z,30.23
2022-08-07T16:10:36.692Z,29.82
2022-08-07T16:13:57.645Z,29.37
2022-08-07T16:16:49.720Z,29.01
2022-08-07T16:19:58.851Z,28.84
2022-08-07T16:22:58.113Z,28.71
2022-08-07T16:26:05.086Z,28.57
2022-08-07T16:30:05.456Z,28.47
2022-08-07T16:31:57.819Z,28.42
2022-08-07T16:34:49.675Z,28.35
2022-08-07T16:38:09.197Z,28.29
2022-08-07T16:41:02.246Z,28.23
2022-08-07T16:44:03.760Z,28.18
2022-08-07T16:47:06.008Z,28.19
2022-08-07T16:50:28.789Z,28.17
2022-08-07T16:52:52.067Z,28.11
2022-08-07T16:55:47.297Z,28.03
2022-08-07T16:59:02.213Z,27.94
2022-08-07T17:01:22.807Z,27.86
2022-08-07T17:04:25.070Z,27.81
2022-08-07T17:07:03.305Z,27.77
2022-08-07T17:10:06.939Z,27.72
2022-08-07T17:12:53.257Z,27.68
2022-08-07T17:15:44.260Z,27.63
2022-08-07T17:18:37.738Z,27.60
2022-08-07T17:21:19.023Z,27.56
2022-08-07T17:23:54.113Z,27.50
2022-08-07T17:26:55.333Z,27.44
2022-08-07T17:30:16.160Z,27.42
2022-08-07T17:32:51.983Z,27.34
2022-08-07T17:35:50.914Z,27.32
2022-08-07T17:38:39.614Z,27.26
2022-08-07T17:42:04.843Z,27.26
2022-08-07T17:44:34.047Z,27.26
2022-08-07T17:47:16.956Z,27.32
2022-08-07T17:50:01.778Z,28.64
2022-08-07T17:52:44.649Z,29.80
2022-08-07T17:56:00.440Z,31.38
2022-08-07T17:58:30.133Z,32.25
2022-08-07T18:00:59.526Z,32.55
2022-08-07T18:04:04.110Z,32.47
2022-08-07T18:06:37.237Z,31.20
2022-08-07T18:09:08.711Z,29.53
2022-08-07T18:12:16.166Z,28.46
2022-08-07T18:14:44.966Z,27.75
2022-08-07T18:18:46.768Z,27.29
2022-08-07T18:21:11.032Z,26.98
2022-08-07T18:23:50.742Z,26.77
2022-08-07T18:26:45.840Z,26.59
2022-08-07T18:30:04.256Z,26.50
2022-08-07T18:33:00.253Z,26.38
2022-08-07T18:36:00.948Z,26.27
2022-08-07T18:38:56.754Z,26.18
2022-08-07T18:41:44.697Z,26.09
2022-08-07T18:45:40.338Z,26.01
2022-08-07T18:48:05.423Z,25.95
2022-08-07T18:50:47.577Z,25.87
2022-08-07T18:53:57.372Z,25.80
2022-08-07T18:56:39.696Z,25.75
2022-08-07T18:59:47.309Z,25.62
2022-08-07T19:02:52.499Z,25.55
2022-08-07T19:06:02.634Z,25.49
2022-08-07T19:08:28.936Z,25.45
2022-08-07T19:11:36.731Z,25.38
2022-08-07T19:14:24.027Z,25.33
2022-08-07T19:17:07.939Z,25.24
2022-08-07T19:20:29.209Z,25.17
2022-08-07T19:23:18.390Z,25.15
2022-08-07T19:26:22.770Z,25.10
2022-08-07T19:30:53.876Z,25.03
2022-08-07T19:31:59.882Z,24.96
2022-08-07T19:34:32.433Z,24.88
2022-08-07T19:37:10.336Z,24.83
2022-08-07T19:39:57.976Z,24.81
2022-08-07T19:42:30.839Z,24.75
2022-08-07T19:45:09.551Z,24.71
2022-08-07T19:47:42.190Z,24.65
2022-08-07T19:50:41.417Z,24.61
2022-08-07T19:52:59.120Z,24.54
2022-08-07T19:55:58.083Z,24.47
2022-08-07T19:58:18.505Z,24.42
2022-08-07T20:00:56.839Z,24.36
2022-08-07T20:03:34.646Z,24.31
2022-08-07T20:06:05.101Z,24.24
2022-08-07T20:08:35.903Z,24.16
2022-08-07T20:11:15.010Z,24.09
2022-08-07T20:13:56.450Z,24.03
2022-08-07T20:16:35.890Z,23.96
2022-08-07T20:19:10.405Z,23.83
2022-08-07T20:21:42.092Z,23.76
2022-08-07T20:24:19.438Z,23.61
2022-08-07T20:26:54.607Z,23.55
2022-08-07T20:29:47.659Z,23.53
2022-08-07T20:32:22.942Z,23.54
2022-08-07T20:34:57.540Z,23.54
2022-08-07T20:37:29.547Z,23.50
2022-08-07T20:40:05.083Z,23.46
2022-08-07T20:42:56.091Z,23.38
2022-08-07T20:45:33.721Z,23.27
2022-08-07T20:48:28.860Z,23.18
2022-08-07T20:51:01.609Z,23.13
2022-08-07T20:54:03.165Z,23.08
2022-08-07T20:56:25.959Z,23.05
2022-08-07T20:58:55.922Z,23.02
2022-08-07T21:01:45.919Z,22.96
2022-08-07T21:04:22.799Z,22.85
2022-08-07T21:06:53.555Z,22.79
2022-08-07T21:09:27.978Z,22.75
2022-08-07T21:11:57.640Z,22.75
2022-08-07T21:14:34.237Z,22.73
2022-08-07T21:18:00.939Z,22.66
2022-08-07T21:20:05.129Z,22.58
2022-08-07T21:22:45.177Z,22.47
2022-08-07T21:25:29.158Z,22.44
2022-08-07T21:28:02.612Z,22.42
2022-08-07T21:30:39.237Z,22.44
2022-08-07T21:33:11.535Z,22.40
2022-08-07T21:36:05.023Z,22.42
2022-08-07T21:39:46.278Z,22.45
2022-08-07T21:42:42.555Z,22.42
2022-08-07T21:46:05.437Z,22.36
2022-08-07T21:48:41.442Z,22.31
2022-08-07T21:51:32.909Z,22.26
2022-08-07T21:54:49.655Z,22.20
2022-08-07T21:57:31.514Z,22.16
2022-08-07T22:00:22.750Z,22.11
2022-08-07T22:03:09.484Z,22.07
2022-08-07T22:06:06.287Z,22.00
2022-08-07T22:09:06.894Z,21.94
2022-08-07T22:11:52.900Z,21.91
2022-08-07T22:14:36.263Z,21.83
2022-08-07T22:17:05.948Z,21.76
2022-08-07T22:19:57.289Z,21.72
2022-08-07T22:22:30.078Z,21.72
2022-08-07T22:25:10.961Z,21.70
2022-08-07T22:28:07.329Z,21.65
2022-08-07T22:30:53.224Z,21.58
2022-08-07T22:33:52.829Z,21.56
2022-08-07T22:36:29.473Z,21.49
2022-08-07T22:39:04.533Z,21.48
2022-08-07T22:42:04.141Z,21.48
2022-08-07T22:44:32.798Z,21.45
2022-08-07T22:47:16.945Z,21.40
2022-08-07T22:50:08.482Z,21.32
2022-08-07T22:52:56.249Z,21.30
2022-08-07T22:55:57.030Z,21.24
2022-08-07T22:58:24.880Z,21.24
2022-08-07T23:01:09.301Z,21.28
2022-08-07T23:04:03.663Z,21.22
2022-08-07T23:06:56.917Z,21.18
2022-08-07T23:10:06.107Z,21.07
2022-08-07T23:12:34.071Z,20.89
2022-08-07T23:15:07.149Z,20.85
2022-08-07T23:18:09.266Z,20.85
2022-08-07T23:21:03.003Z,20.76
2022-08-07T23:24:05.233Z,20.62
2022-08-07T23:26:57.679Z,20.55
2022-08-07T23:30:36.346Z,20.59
2022-08-07T23:34:34.748Z,20.62
2022-08-07T23:36:17.253Z,20.55
2022-08-07T23:38:55.599Z,20.53
2022-08-07T23:42:04.894Z,20.52
2022-08-07T23:45:33.207Z,20.55
2022-08-07T23:48:22.015Z,20.54
2022-08-07T23:51:00.808Z,20.55
2022-08-07T23:53:51.632Z,20.53
2022-08-07T23:56:56.539Z,20.29
